»·PEaware :: SWA2408 KPHX-KONT

SWA2408 :: KPHX-KONT

FLIGHT INFORMATION

Flight Status: Arrived
Operator:
Southwest Airlines
More flights by this operator :: More flights under this callsign
Pilot: Drew L. (13237)
Aircraft: BOEING 737-800
(B738)
More flights by this aircraft type
Origin: KPHX Phoenix Sky Harbor Intl
United States
Destination: KONT Ontario Intl
United States
More flights between these airports :: More routes between these airports
Route: +KEENS1 HRRBR PHRED SCBBY2
File this flight plan on PilotEdge
Remarks: PBN / A1B1C1D1S1S2 DOF / 180408 REG / N806SB EET / KZLA0020 OPR / SWA PER / C RMK / TCAS SIMBRIEF
Altitude:
(Current/Filed)
28,000ft
Speed:
(Current/Filed)
437kts
Departed: 08-Apr-18 02:40 PM
Arrived: 08-Apr-18 03:34 PM
Distance/Time
Traveled:
281nm/0:54
Distance/Time
To Go:
Arrived

Flight Plot

Page will automatically refresh every two minutes.

Flight plan parsing failed; only flown route is shown


Map Options




Map Legend


Flown Route
Filed Route
Departure Airport
Arrival Airport
Navaid (VOR, NDB)
Fix

Horizontal Profiles

Position Reports

Time Latitude Longitude Heading Altitude Ground
Speed
08-Apr-18 14:15 33.433663 -111.996206 314 1142ft 0kts
08-Apr-18 14:16 33.433663 -111.996206 314 1142ft 0kts
08-Apr-18 14:17 33.433663 -111.996206 314 1142ft 0kts
08-Apr-18 14:18 33.433663 -111.996206 314 1142ft 0kts
08-Apr-18 14:19 33.433663 -111.996206 314 1142ft 0kts
08-Apr-18 14:20 33.433663 -111.996206 314 1142ft 0kts
08-Apr-18 14:21 33.433663 -111.996206 314 1142ft 0kts
08-Apr-18 14:22 33.433663 -111.996206 314 1142ft 0kts
08-Apr-18 14:23 33.433663 -111.996206 314 1142ft 0kts
08-Apr-18 14:24 33.433663 -111.996206 314 1142ft 0kts
08-Apr-18 14:25 33.433663 -111.996206 314 1142ft 0kts
08-Apr-18 14:26 33.433663 -111.996206 314 1142ft 0kts
08-Apr-18 14:27 33.433663 -111.996206 314 1142ft 0kts
08-Apr-18 14:28 33.433663 -111.996206 314 1142ft 0kts
08-Apr-18 14:29 33.433663 -111.996206 314 1142ft 0kts
08-Apr-18 14:30 33.433346 -111.995772 280 1142ft 2kts
08-Apr-18 14:31 33.433626 -111.995389 178 1142ft 1kts
08-Apr-18 14:32 33.433645 -111.995389 179 1142ft 0kts
08-Apr-18 14:33 33.433645 -111.995389 179 1142ft 0kts
08-Apr-18 14:34 33.433645 -111.995389 179 1142ft 0kts
08-Apr-18 14:35 33.433645 -111.995389 179 1142ft 0kts
08-Apr-18 14:36 33.433645 -111.995389 179 1142ft 0kts
08-Apr-18 14:37 33.432132 -111.994835 103 1142ft 10kts
08-Apr-18 14:38 33.431758 -111.993414 159 1142ft 8kts
08-Apr-18 14:39 33.431021 -112.008173 270 1142ft 131kts
08-Apr-18 14:40 33.430408 -112.064100 267 2332ft 189kts
08-Apr-18 14:41 33.411582 -112.134906 250 4126ft 260kts
08-Apr-18 14:42 33.394419 -112.218824 279 7227ft 272kts
08-Apr-18 14:43 33.407258 -112.308356 281 10219ft 283kts
08-Apr-18 14:44 33.422085 -112.408315 281 12481ft 319kts
08-Apr-18 14:45 33.437528 -112.513170 281 15595ft 325kts
08-Apr-18 14:46 33.452171 -112.619437 274 18236ft 332kts
08-Apr-18 14:47 33.453310 -112.729069 272 20435ft 338kts
08-Apr-18 14:48 33.461325 -112.842782 282 22195ft 343kts
08-Apr-18 14:49 33.482222 -112.955105 283 24359ft 350kts
08-Apr-18 14:50 33.503664 -113.070482 282 26267ft 358kts
08-Apr-18 14:51 33.525253 -113.187144 282 27901ft 366kts
08-Apr-18 14:52 33.548349 -113.312708 282 27895ft 404kts
08-Apr-18 14:53 33.572548 -113.444943 282 27884ft 408kts
08-Apr-18 14:54 33.596920 -113.577275 282 27886ft 408kts
08-Apr-18 14:55 33.620497 -113.703930 282 27912ft 408kts
08-Apr-18 14:56 33.644815 -113.835793 282 27916ft 407kts
08-Apr-18 14:57 33.650186 -113.970850 269 27916ft 409kts
08-Apr-18 14:58 33.647255 -114.106851 269 27917ft 409kts
08-Apr-18 14:59 33.658096 -114.242095 277 27914ft 408kts
08-Apr-18 15:00 33.671481 -114.377303 277 27914ft 408kts
08-Apr-18 15:01 33.684720 -114.512451 277 27911ft 408kts
08-Apr-18 15:02 33.697056 -114.639648 277 27909ft 408kts
08-Apr-18 15:03 33.709823 -114.773780 276 27919ft 408kts
08-Apr-18 15:04 33.722067 -114.903920 276 27918ft 408kts
08-Apr-18 15:05 33.734609 -115.038470 276 27917ft 409kts
08-Apr-18 15:06 33.747171 -115.174595 276 27916ft 411kts
08-Apr-18 15:07 33.760942 -115.311080 277 27903ft 411kts
08-Apr-18 15:08 33.774799 -115.447389 277 27881ft 413kts
08-Apr-18 15:09 33.788926 -115.583704 277 27313ft 418kts
08-Apr-18 15:10 33.800845 -115.701208 276 25730ft 404kts
08-Apr-18 15:11 33.812864 -115.821916 277 24102ft 398kts
08-Apr-18 15:12 33.825753 -115.952559 277 22303ft 391kts
08-Apr-18 15:13 33.838319 -116.081166 277 20494ft 385kts
08-Apr-18 15:14 33.850669 -116.205018 277 19195ft 377kts
08-Apr-18 15:15 33.863059 -116.325150 278 17157ft 351kts
08-Apr-18 15:16 33.875145 -116.437151 278 15155ft 338kts
08-Apr-18 15:17 33.889494 -116.511411 287 13785ft 334kts
08-Apr-18 15:18 33.916223 -116.615839 287 11979ft 329kts
08-Apr-18 15:19 33.938795 -116.704504 287 10615ft 324kts
08-Apr-18 15:20 33.947292 -116.799767 268 9528ft 300kts
08-Apr-18 15:21 33.943625 -116.906115 268 8108ft 265kts
08-Apr-18 15:22 33.949082 -116.988703 291 7191ft 242kts
08-Apr-18 15:23 33.970166 -117.049061 293 6489ft 227kts
08-Apr-18 15:24 33.994263 -117.117592 293 5920ft 223kts
08-Apr-18 15:25 34.017703 -117.186187 287 5317ft 223kts
08-Apr-18 15:26 34.033504 -117.257693 285 5007ft 214kts
08-Apr-18 15:27 34.047356 -117.321939 286 5018ft 194kts
08-Apr-18 15:28 34.055730 -117.387416 276 4091ft 191kts
08-Apr-18 15:29 34.056853 -117.444246 271 3233ft 157kts
08-Apr-18 15:30 34.056884 -117.495529 271 2397ft 153kts
08-Apr-18 15:31 34.056878 -117.546256 270 1579ft 151kts
08-Apr-18 15:32 34.056900 -117.594891 269 951ft 98kts
08-Apr-18 15:33 34.057851 -117.602268 358 950ft 0kts
08-Apr-18 15:34 34.058002 -117.597722 90 950ft 32kts
08-Apr-18 15:35 34.059966 -117.595714 1 950ft 0kts
08-Apr-18 15:36 34.059966 -117.595714 1 950ft 0kts
08-Apr-18 15:37 34.059966 -117.595714 1 950ft 0kts
08-Apr-18 15:38 34.059966 -117.595714 1 950ft 0kts
08-Apr-18 15:39 34.059966 -117.595714 1 950ft 0kts
08-Apr-18 15:40 34.059966 -117.595714 1 950ft 0kts
08-Apr-18 15:41 34.059966 -117.595714 1 950ft 0kts
08-Apr-18 15:42 34.059966 -117.595714 1 950ft 0kts
08-Apr-18 15:43 34.059966 -117.595714 1 950ft 0kts
08-Apr-18 15:44 34.059966 -117.595714 1 950ft 0kts
08-Apr-18 15:45 34.059966 -117.595714 1 950ft 0kts
08-Apr-18 15:46 34.059966 -117.595714 1 950ft 0kts
08-Apr-18 15:47 34.059966 -117.595714 1 950ft 0kts

Navigation Log

Ident Type
Flight plan parsing failed, navigation log unavailable